createdAt,value
2022-08-11T00:01:52.378Z,2.35
2022-08-11T00:04:21.311Z,2.05
2022-08-11T00:06:48.594Z,2.13
2022-08-11T00:09:18.389Z,2.28
2022-08-11T00:11:53.051Z,2.05
2022-08-11T00:14:22.081Z,2.10
2022-08-11T00:17:15.563Z,2.10
2022-08-11T00:20:12.793Z,2.20
2022-08-11T00:22:33.060Z,2.20
2022-08-11T00:25:02.554Z,1.92
2022-08-11T00:27:33.427Z,2.70
2022-08-11T00:30:00.956Z,1.90
2022-08-11T00:32:28.398Z,2.10
2022-08-11T00:35:56.047Z,2.20
2022-08-11T00:37:50.000Z,2.05
2022-08-11T00:40:54.227Z,2.30
2022-08-11T00:43:48.100Z,2.78
2022-08-11T00:46:15.391Z,2.40
2022-08-11T00:48:50.844Z,2.10
2022-08-11T00:51:57.655Z,2.20
2022-08-11T00:54:50.772Z,2.13
2022-08-11T00:57:45.693Z,2.42
2022-08-11T01:00:20.065Z,2.00
2022-08-11T01:03:13.280Z,2.30
2022-08-11T01:06:03.026Z,2.15
2022-08-11T01:09:01.246Z,2.30
2022-08-11T01:11:56.035Z,2.28
2022-08-11T01:14:48.452Z,1.97
2022-08-11T01:17:49.724Z,2.03
2022-08-11T01:20:46.906Z,2.30
2022-08-11T01:23:34.955Z,2.15
2022-08-11T01:26:05.255Z,2.15
2022-08-11T01:29:17.823Z,2.00
2022-08-11T01:32:32.745Z,1.95
2022-08-11T01:35:18.529Z,2.30
2022-08-11T01:38:07.378Z,2.30
2022-08-11T01:40:52.948Z,2.70
2022-08-11T01:43:51.847Z,2.37
2022-08-11T01:46:31.581Z,2.10
2022-08-11T01:50:05.907Z,2.40
2022-08-11T01:52:30.170Z,2.50
2022-08-11T01:55:22.221Z,2.45
2022-08-11T01:58:16.513Z,2.20
2022-08-11T02:01:21.859Z,2.05
2022-08-11T02:04:08.273Z,2.30
2022-08-11T02:06:55.895Z,2.30
2022-08-11T02:09:29.364Z,2.40
2022-08-11T02:12:03.467Z,2.13
2022-08-11T02:15:04.499Z,2.47
2022-08-11T02:17:57.910Z,2.10
2022-08-11T02:21:10.736Z,2.30
2022-08-11T02:24:07.188Z,2.28
2022-08-11T02:26:44.278Z,2.27
2022-08-11T02:29:47.708Z,2.63
2022-08-11T02:32:36.802Z,2.38
2022-08-11T02:35:32.960Z,2.50
2022-08-11T02:38:17.319Z,2.40
2022-08-11T02:40:58.047Z,2.17
2022-08-11T02:43:40.729Z,2.33
2022-08-11T02:46:20.207Z,2.30
2022-08-11T02:49:15.128Z,2.40
2022-08-11T02:52:28.568Z,2.30
2022-08-11T02:54:55.813Z,2.60
2022-08-11T02:57:40.880Z,2.70
2022-08-11T03:00:09.292Z,2.67
2022-08-11T03:02:54.723Z,2.08
2022-08-11T03:05:38.992Z,2.33
2022-08-11T03:08:51.416Z,2.40
2022-08-11T03:11:59.907Z,2.33
2022-08-11T03:15:01.311Z,2.63
2022-08-11T03:17:42.280Z,2.53
2022-08-11T03:20:38.335Z,2.55
2022-08-11T03:23:26.373Z,2.50
2022-08-11T03:25:55.890Z,2.67
2022-08-11T03:28:57.262Z,2.80
2022-08-11T03:31:49.768Z,2.50
2022-08-11T03:34:22.616Z,2.50
2022-08-11T03:37:34.919Z,2.73
2022-08-11T03:40:58.234Z,2.78
2022-08-11T03:43:45.588Z,2.50
2022-08-11T03:47:02.009Z,2.70
2022-08-11T03:50:07.122Z,2.67
2022-08-11T03:53:04.858Z,2.27
2022-08-11T03:56:01.350Z,2.70
2022-08-11T03:58:46.143Z,2.40
2022-08-11T04:01:43.130Z,2.75
2022-08-11T04:04:19.640Z,2.80
2022-08-11T04:07:12.204Z,2.50
2022-08-11T04:10:11.514Z,2.20
2022-08-11T04:13:12.891Z,2.50
2022-08-11T04:16:12.167Z,2.53
2022-08-11T04:19:04.747Z,2.80
2022-08-11T04:22:09.752Z,2.70
2022-08-11T04:24:58.738Z,2.47
2022-08-11T04:27:50.989Z,2.50
2022-08-11T04:30:56.016Z,2.63
2022-08-11T04:33:37.757Z,2.40
2022-08-11T04:36:09.814Z,2.47
2022-08-11T04:39:04.540Z,2.58
2022-08-11T04:42:21.635Z,2.50
2022-08-11T04:44:58.146Z,2.67
2022-08-11T04:48:01.772Z,2.60
2022-08-11T04:51:16.418Z,2.43
2022-08-11T04:54:13.748Z,2.50
2022-08-11T04:56:59.669Z,2.35
2022-08-11T05:00:17.718Z,2.65
2022-08-11T05:03:22.764Z,2.50
2022-08-11T05:06:30.114Z,2.70
2022-08-11T05:09:24.961Z,2.70
2022-08-11T05:12:04.627Z,2.45
2022-08-11T05:14:55.705Z,2.80
2022-08-11T05:18:11.202Z,2.50
2022-08-11T05:21:04.980Z,2.60
2022-08-11T05:23:52.299Z,2.50
2022-08-11T05:26:46.455Z,2.40
2022-08-11T05:29:56.593Z,2.95
2022-08-11T05:32:42.667Z,2.55
2022-08-11T05:35:10.127Z,2.40
2022-08-11T05:38:02.963Z,2.60
2022-08-11T05:40:51.252Z,2.40
2022-08-11T05:43:39.648Z,2.70
2022-08-11T05:46:46.228Z,2.30
2022-08-11T05:49:33.162Z,2.20
2022-08-11T05:52:19.112Z,2.70
2022-08-11T05:55:07.462Z,2.30
2022-08-11T05:57:49.482Z,2.40
2022-08-11T06:00:19.600Z,2.60
2022-08-11T06:02:50.150Z,2.50
2022-08-11T06:05:19.407Z,2.33
2022-08-11T06:07:49.853Z,2.20
2022-08-11T06:10:30.552Z,2.60
2022-08-11T06:12:57.952Z,2.60
2022-08-11T06:15:25.481Z,2.13
2022-08-11T06:17:54.312Z,2.38
2022-08-11T06:20:22.334Z,2.40
2022-08-11T06:22:57.127Z,2.38
2022-08-11T06:25:36.124Z,2.60
2022-08-11T06:28:05.978Z,2.63
2022-08-11T06:30:42.913Z,2.67
2022-08-11T06:33:15.451Z,2.30
2022-08-11T06:36:07.733Z,2.38
2022-08-11T06:38:47.847Z,2.28
2022-08-11T06:41:34.648Z,2.47
2022-08-11T06:44:14.311Z,2.53
2022-08-11T06:46:52.028Z,2.72
2022-08-11T06:49:40.077Z,2.97
2022-08-11T06:52:12.809Z,3.13
2022-08-11T06:54:58.285Z,3.00
2022-08-11T06:57:44.359Z,2.92
2022-08-11T07:00:30.547Z,2.97
2022-08-11T07:03:11.025Z,2.85
2022-08-11T07:06:19.691Z,2.80
2022-08-11T07:09:24.615Z,2.83
2022-08-11T07:12:19.709Z,2.80
2022-08-11T07:15:12.829Z,3.25
2022-08-11T07:17:49.525Z,3.00
2022-08-11T07:20:36.270Z,2.92
2022-08-11T07:23:22.672Z,2.93
2022-08-11T07:26:13.895Z,2.88
2022-08-11T07:28:58.841Z,3.20
2022-08-11T07:31:34.318Z,3.00
2022-08-11T07:34:26.020Z,2.90
2022-08-11T07:36:57.911Z,2.43
2022-08-11T07:39:31.786Z,2.55
2022-08-11T07:42:00.238Z,2.42
2022-08-11T07:44:35.094Z,2.70
2022-08-11T07:47:21.911Z,2.38
2022-08-11T07:50:08.173Z,2.30
2022-08-11T07:52:37.310Z,2.50
2022-08-11T07:55:49.249Z,2.58
2022-08-11T07:58:37.762Z,2.40
2022-08-11T08:01:32.041Z,2.60
2022-08-11T08:04:18.438Z,2.30
2022-08-11T08:07:04.447Z,2.22
2022-08-11T08:09:52.638Z,2.10
2022-08-11T08:12:42.603Z,2.05
2022-08-11T08:15:30.329Z,2.10
2022-08-11T08:18:09.776Z,2.20
2022-08-11T08:20:52.577Z,2.30
2022-08-11T08:23:33.918Z,2.20
2022-08-11T08:26:04.645Z,2.45
2022-08-11T08:28:32.736Z,2.65
2022-08-11T08:31:00.209Z,2.20
2022-08-11T08:33:31.098Z,2.50
2022-08-11T08:36:12.140Z,2.20
2022-08-11T08:38:57.824Z,2.50
2022-08-11T08:41:30.456Z,2.60
2022-08-11T08:44:20.981Z,2.33
2022-08-11T08:46:53.551Z,2.25
2022-08-11T08:49:24.296Z,2.10
2022-08-11T08:52:18.635Z,2.28
2022-08-11T08:54:43.685Z,2.42
2022-08-11T08:57:12.323Z,2.17
2022-08-11T08:59:48.999Z,1.75
2022-08-11T09:02:34.859Z,2.05
2022-08-11T09:05:06.179Z,1.92
2022-08-11T09:07:38.589Z,1.58
2022-08-11T09:10:08.973Z,1.50
2022-08-11T09:12:39.252Z,1.40
2022-08-11T09:15:10.608Z,2.83
2022-08-11T09:18:03.878Z,1.90
2022-08-11T09:20:34.731Z,1.70
2022-08-11T09:26:33.756Z,1.98
2022-08-11T09:29:01.519Z,1.70
2022-08-11T09:31:34.576Z,1.80
2022-08-11T09:34:06.575Z,1.77
2022-08-11T09:36:52.627Z,2.10
2022-08-11T09:39:38.644Z,2.45
2022-08-11T09:42:06.392Z,1.80
2022-08-11T09:44:52.511Z,1.83
2022-08-11T09:47:28.682Z,1.80
2022-08-11T09:50:01.002Z,1.80
2022-08-11T09:52:37.085Z,1.80
2022-08-11T09:55:11.336Z,1.60
2022-08-11T09:57:58.614Z,1.90
2022-08-11T10:00:40.675Z,2.05
2022-08-11T10:03:13.798Z,1.90
2022-08-11T10:06:04.554Z,1.80
2022-08-11T10:08:34.896Z,2.10
2022-08-11T10:11:02.200Z,1.73
2022-08-11T10:14:31.583Z,1.92
2022-08-11T10:16:43.303Z,1.70
2022-08-11T10:19:10.801Z,1.85
2022-08-11T10:21:41.058Z,1.42
2022-08-11T10:24:27.220Z,1.55
2022-08-11T10:26:55.498Z,1.77
2022-08-11T10:29:51.092Z,1.90
2022-08-11T10:32:49.398Z,1.70
2022-08-11T10:35:27.832Z,1.70
2022-08-11T10:38:08.747Z,1.60
2022-08-11T10:40:40.457Z,2.03
2022-08-11T10:43:13.738Z,1.83
2022-08-11T10:46:03.421Z,1.67
2022-08-11T10:48:32.352Z,1.70
2022-08-11T10:51:15.046Z,1.67
2022-08-11T10:54:04.925Z,1.80
2022-08-11T10:56:59.709Z,1.70
2022-08-11T10:59:28.434Z,1.80
2022-08-11T11:01:56.154Z,1.50
2022-08-11T11:04:28.085Z,1.70
2022-08-11T11:07:17.309Z,2.03
2022-08-11T11:09:51.350Z,1.50
2022-08-11T11:12:44.622Z,1.92
2022-08-11T11:15:30.596Z,1.70
2022-08-11T11:18:04.906Z,1.58
2022-08-11T11:20:43.808Z,1.70
2022-08-11T11:23:21.475Z,1.80
2022-08-11T11:26:11.958Z,1.75
2022-08-11T11:29:17.116Z,1.77
2022-08-11T11:32:32.384Z,2.00
2022-08-11T11:35:31.972Z,1.80
2022-08-11T11:38:04.916Z,1.60
2022-08-11T11:40:33.246Z,1.88
2022-08-11T11:43:00.676Z,1.50
2022-08-11T11:45:28.013Z,1.80
2022-08-11T11:47:56.241Z,1.77
2022-08-11T11:50:33.105Z,1.90
2022-08-11T11:53:01.633Z,1.80
2022-08-11T11:55:29.212Z,1.50
2022-08-11T11:58:18.741Z,1.70
2022-08-11T12:01:05.731Z,1.80
2022-08-11T12:03:34.097Z,1.70
2022-08-11T12:06:01.640Z,1.60
2022-08-11T12:08:29.123Z,1.48
2022-08-11T12:11:17.759Z,1.67
2022-08-11T12:13:46.567Z,1.77
2022-08-11T12:16:32.871Z,1.60
2022-08-11T12:19:03.330Z,2.00
2022-08-11T12:21:30.723Z,1.60
2022-08-11T12:24:18.340Z,1.70
2022-08-11T12:27:16.201Z,1.80
2022-08-11T12:29:51.408Z,1.93
2022-08-11T12:32:32.320Z,1.80
2022-08-11T12:34:59.783Z,1.85
2022-08-11T12:37:32.033Z,1.65
2022-08-11T12:40:50.105Z,1.80
2022-08-11T12:43:38.507Z,1.80
2022-08-11T12:46:09.062Z,1.73
2022-08-11T12:49:02.016Z,1.80
2022-08-11T12:52:12.270Z,1.75
2022-08-11T12:54:52.425Z,1.63
2022-08-11T12:57:47.228Z,1.77
2022-08-11T13:00:34.003Z,1.63
2022-08-11T13:03:20.123Z,1.77
2022-08-11T13:05:47.835Z,1.70
2022-08-11T13:08:15.581Z,1.58
2022-08-11T13:11:03.168Z,1.83
2022-08-11T13:13:54.340Z,1.67
2022-08-11T13:16:18.179Z,2.00
2022-08-11T13:18:45.702Z,1.83
2022-08-11T13:21:20.725Z,1.67
2022-08-11T13:24:00.759Z,1.60
2022-08-11T13:26:43.353Z,1.60
2022-08-11T13:29:19.028Z,1.70
2022-08-11T13:31:46.863Z,1.73
2022-08-11T13:34:16.273Z,1.90
2022-08-11T13:36:44.055Z,1.70
2022-08-11T13:39:11.809Z,1.60
2022-08-11T13:41:41.925Z,1.90
2022-08-11T13:44:10.453Z,1.80
2022-08-11T13:46:38.487Z,1.95
2022-08-11T13:49:09.153Z,1.60
2022-08-11T13:51:40.565Z,1.75
2022-08-11T13:54:22.157Z,1.50
2022-08-11T13:56:52.992Z,1.70
2022-08-11T13:59:24.115Z,1.77
2022-08-11T14:02:21.692Z,1.53
2022-08-11T14:04:57.454Z,1.98
2022-08-11T14:07:36.284Z,1.70
2022-08-11T14:10:04.510Z,1.73
2022-08-11T14:12:51.202Z,1.70
2022-08-11T14:15:33.401Z,1.57
2022-08-11T14:18:06.957Z,2.20
2022-08-11T14:20:54.871Z,1.67
2022-08-11T14:23:26.902Z,1.80
2022-08-11T14:26:13.887Z,1.83
2022-08-11T14:28:45.120Z,1.70
2022-08-11T14:31:15.951Z,2.17
2022-08-11T14:33:59.747Z,1.90
2022-08-11T14:36:37.121Z,1.60
2022-08-11T14:39:08.416Z,1.70
2022-08-11T14:42:09.928Z,1.60
2022-08-11T14:45:03.341Z,1.80
2022-08-11T14:47:35.293Z,1.60
2022-08-11T14:50:10.762Z,1.48
2022-08-11T14:52:55.711Z,1.60
2022-08-11T14:55:43.469Z,1.70
2022-08-11T14:58:11.432Z,1.65
2022-08-11T15:00:38.894Z,1.70
2022-08-11T15:03:13.455Z,1.70
2022-08-11T15:05:56.981Z,1.75
2022-08-11T15:08:48.883Z,1.60
2022-08-11T15:11:36.820Z,1.67
2022-08-11T15:14:06.752Z,1.77
2022-08-11T15:16:53.147Z,1.77
2022-08-11T15:19:23.594Z,1.70
2022-08-11T15:22:11.589Z,1.87
2022-08-11T15:24:39.473Z,1.67
2022-08-11T15:27:30.472Z,1.58
2022-08-11T15:30:29.874Z,1.60
2022-08-11T15:33:26.907Z,1.90
2022-08-11T15:36:14.065Z,2.53
2022-08-11T15:39:08.408Z,2.25
2022-08-11T15:42:09.984Z,1.58
2022-08-11T15:45:02.679Z,1.42
2022-08-11T15:47:46.077Z,1.50
2022-08-11T15:50:15.772Z,1.70
2022-08-11T15:52:49.984Z,1.60
2022-08-11T15:55:17.708Z,1.30
2022-08-11T15:58:05.813Z,1.70
2022-08-11T16:01:03.677Z,1.35
2022-08-11T16:04:07.223Z,1.80
2022-08-11T16:06:49.279Z,1.45
2022-08-11T16:09:28.423Z,1.50
2022-08-11T16:12:04.342Z,1.50
2022-08-11T16:14:51.818Z,1.42
2022-08-11T16:17:19.659Z,1.60
2022-08-11T16:19:47.626Z,1.40
2022-08-11T16:22:15.213Z,1.58
2022-08-11T16:27:05.716Z,1.60
2022-08-11T16:27:34.194Z,1.45
2022-08-11T16:30:01.639Z,1.40
2022-08-11T16:32:29.051Z,1.50
2022-08-11T16:35:17.881Z,1.45
2022-08-11T16:38:03.836Z,1.50
2022-08-11T16:40:31.562Z,1.65
2022-08-11T16:43:17.453Z,1.53
2022-08-11T16:46:03.607Z,1.45
2022-08-11T16:48:37.213Z,1.42
2022-08-11T16:51:07.018Z,1.42
2022-08-11T16:54:00.149Z,1.70
2022-08-11T16:56:25.642Z,1.60
2022-08-11T16:59:16.274Z,1.40
2022-08-11T17:01:50.473Z,1.73
2022-08-11T17:04:41.870Z,1.55
2022-08-11T17:07:40.631Z,1.70
2022-08-11T17:10:50.560Z,1.83
2022-08-11T17:13:28.448Z,1.77
2022-08-11T17:16:06.935Z,1.50
2022-08-11T17:18:58.335Z,1.60
2022-08-11T17:22:08.561Z,1.55
2022-08-11T17:24:38.224Z,1.50
2022-08-11T17:27:07.943Z,1.38
2022-08-11T17:29:53.713Z,1.80
2022-08-11T17:33:00.472Z,1.52
2022-08-11T17:35:33.459Z,1.60
2022-08-11T17:38:09.177Z,1.80
2022-08-11T17:40:38.869Z,1.73
2022-08-11T17:43:27.854Z,1.50
2022-08-11T17:46:10.750Z,1.50
2022-08-11T17:48:47.729Z,1.73
2022-08-11T17:51:38.802Z,1.73
2022-08-11T17:54:25.493Z,1.92
2022-08-11T17:57:20.375Z,1.48
2022-08-11T17:59:53.195Z,1.75
2022-08-11T18:03:02.163Z,1.60
2022-08-11T18:05:31.502Z,1.60
2022-08-11T18:08:20.297Z,1.60
2022-08-11T18:11:06.312Z,1.73
2022-08-11T18:13:54.416Z,1.90
2022-08-11T18:16:40.638Z,1.80
2022-08-11T18:19:26.667Z,1.90
2022-08-11T18:22:17.175Z,1.77
2022-08-11T18:25:07.805Z,1.60
2022-08-11T18:27:54.012Z,1.80
2022-08-11T18:30:40.127Z,1.73
2022-08-11T18:33:50.654Z,2.07
2022-08-11T18:36:41.762Z,1.92
2022-08-11T18:39:29.918Z,1.92
2022-08-11T18:42:17.359Z,1.65
2022-08-11T18:45:17.605Z,1.90
2022-08-11T18:48:03.656Z,1.57
2022-08-11T18:50:53.564Z,2.00
2022-08-11T18:53:56.281Z,1.65
2022-08-11T18:56:43.706Z,1.90
2022-08-11T18:59:29.572Z,1.85
2022-08-11T19:02:15.705Z,1.70
2022-08-11T19:05:01.605Z,2.10
2022-08-11T19:07:47.910Z,1.63
2022-08-11T19:10:34.117Z,1.90
2022-08-11T19:13:20.042Z,1.73
2022-08-11T19:16:06.027Z,1.90
2022-08-11T19:18:52.240Z,2.03
2022-08-11T19:21:38.467Z,1.52
2022-08-11T19:24:24.888Z,1.88
2022-08-11T19:27:11.881Z,1.70
2022-08-11T19:30:07.591Z,1.60
2022-08-11T19:32:58.822Z,2.05
2022-08-11T19:35:45.083Z,1.73
2022-08-11T19:38:31.124Z,1.60
2022-08-11T19:41:45.432Z,1.98
2022-08-11T19:44:24.093Z,2.00
2022-08-11T19:47:10.193Z,1.63
2022-08-11T19:49:56.067Z,1.92
2022-08-11T19:52:42.527Z,1.90
2022-08-11T19:55:28.574Z,1.90
2022-08-11T19:58:14.560Z,3.60
2022-08-11T20:01:00.955Z,1.80
2022-08-11T20:03:46.955Z,1.88
2022-08-11T20:06:32.873Z,1.75
2022-08-11T20:09:19.464Z,1.67
2022-08-11T20:12:08.306Z,1.87
2022-08-11T20:14:55.962Z,2.00
2022-08-11T20:17:43.586Z,1.60
2022-08-11T20:20:30.239Z,1.40
2022-08-11T20:23:16.982Z,1.85
2022-08-11T20:26:27.835Z,1.73
2022-08-11T20:29:09.864Z,1.83
2022-08-11T20:31:55.805Z,2.03
2022-08-11T20:34:41.894Z,1.60
2022-08-11T20:37:27.772Z,1.60
2022-08-11T20:40:13.501Z,1.90
2022-08-11T20:42:59.389Z,1.90
2022-08-11T20:45:56.701Z,2.00
2022-08-11T20:48:45.665Z,1.60
2022-08-11T20:51:38.615Z,1.67
2022-08-11T20:54:38.390Z,1.87
2022-08-11T20:57:54.461Z,1.70
2022-08-11T21:00:40.571Z,1.77
2022-08-11T21:03:36.044Z,1.88
2022-08-11T21:10:00.931Z,1.83
2022-08-11T21:12:43.453Z,1.63
2022-08-11T21:15:46.916Z,1.80
2022-08-11T21:18:36.182Z,1.77
2022-08-11T21:21:25.033Z,1.77
2022-08-11T21:24:11.949Z,1.77
2022-08-11T21:27:03.440Z,1.70
2022-08-11T21:29:50.409Z,1.70
2022-08-11T21:32:36.181Z,1.70
2022-08-11T21:35:22.426Z,1.77
2022-08-11T21:38:09.045Z,1.80
2022-08-11T21:40:54.942Z,1.80
2022-08-11T21:43:40.967Z,1.90
2022-08-11T21:46:27.149Z,1.70
2022-08-11T21:49:18.766Z,1.83
2022-08-11T21:52:04.810Z,1.50
2022-08-11T21:54:50.749Z,1.55
2022-08-11T21:57:36.767Z,1.55
2022-08-11T22:00:34.298Z,1.40
2022-08-11T22:03:20.135Z,1.48
2022-08-11T22:06:06.133Z,1.80
2022-08-11T22:08:52.125Z,1.70
2022-08-11T22:11:39.257Z,1.48
2022-08-11T22:14:25.078Z,1.70
2022-08-11T22:17:11.117Z,1.38
2022-08-11T22:19:58.005Z,1.50
2022-08-11T22:22:53.262Z,1.50
2022-08-11T22:25:51.240Z,1.48
2022-08-11T22:28:38.638Z,1.40
2022-08-11T22:31:25.088Z,1.50
2022-08-11T22:34:11.188Z,1.50
2022-08-11T22:36:57.637Z,1.52
2022-08-11T22:39:44.195Z,1.30
2022-08-11T22:42:33.543Z,1.50
2022-08-11T22:45:20.642Z,1.38
2022-08-11T22:48:06.648Z,1.23
2022-08-11T22:50:53.570Z,1.67
2022-08-11T22:53:57.545Z,1.67
2022-08-11T22:56:46.589Z,1.70
2022-08-11T22:59:33.162Z,1.70
2022-08-11T23:02:19.644Z,1.20
2022-08-11T23:05:07.535Z,1.60
2022-08-11T23:07:54.432Z,1.42
2022-08-11T23:10:40.416Z,1.30
2022-08-11T23:13:26.310Z,1.15
2022-08-11T23:16:15.856Z,1.37
2022-08-11T23:19:01.764Z,1.20
2022-08-11T23:21:48.090Z,1.38
2022-08-11T23:24:34.477Z,1.15
2022-08-11T23:27:21.062Z,1.20
2022-08-11T23:30:06.879Z,1.50
2022-08-11T23:32:52.862Z,1.50
2022-08-11T23:35:51.750Z,1.40
2022-08-11T23:38:42.775Z,1.20
2022-08-11T23:41:29.169Z,1.52
2022-08-11T23:44:15.098Z,1.30
2022-08-11T23:47:01.463Z,1.38
2022-08-11T23:49:47.525Z,1.38
2022-08-11T23:52:34.731Z,1.50
2022-08-11T23:55:21.840Z,1.38
2022-08-11T23:58:07.683Z,1.10
